sensor_id;sensor_type;location;lat;lon;timestamp;P1;durP1;ratioP1;P2;durP2;ratioP2
34767;SDS011;21755;43.608;1.236;2024-01-06T00:02:13;6.30;;;2.28;;
34767;SDS011;21755;43.608;1.236;2024-01-06T00:04:39;9.30;;;2.67;;
34767;SDS011;21755;43.608;1.236;2024-01-06T00:07:04;3.65;;;2.28;;
34767;SDS011;21755;43.608;1.236;2024-01-06T00:09:30;5.97;;;1.90;;
34767;SDS011;21755;43.608;1.236;2024-01-06T00:11:56;9.00;;;2.28;;
34767;SDS011;21755;43.608;1.236;2024-01-06T00:14:22;5.15;;;2.25;;
34767;SDS011;21755;43.608;1.236;2024-01-06T00:16:48;2.80;;;1.70;;
34767;SDS011;21755;43.608;1.236;2024-01-06T00:19:14;7.07;;;2.17;;
34767;SDS011;21755;43.608;1.236;2024-01-06T00:21:41;11.40;;;2.50;;
34767;SDS011;21755;43.608;1.236;2024-01-06T00:24:07;6.07;;;2.28;;
34767;SDS011;21755;43.608;1.236;2024-01-06T00:26:33;8.43;;;2.47;;
34767;SDS011;21755;43.608;1.236;2024-01-06T00:28:58;6.30;;;2.30;;
34767;SDS011;21755;43.608;1.236;2024-01-06T00:31:24;4.82;;;2.20;;
34767;SDS011;21755;43.608;1.236;2024-01-06T00:33:50;5.18;;;2.10;;
34767;SDS011;21755;43.608;1.236;2024-01-06T00:36:16;5.43;;;2.47;;
34767;SDS011;21755;43.608;1.236;2024-01-06T00:38:42;5.80;;;2.67;;
34767;SDS011;21755;43.608;1.236;2024-01-06T00:41:08;5.20;;;2.10;;
34767;SDS011;21755;43.608;1.236;2024-01-06T00:43:34;6.47;;;2.20;;
34767;SDS011;21755;43.608;1.236;2024-01-06T00:46:00;4.53;;;2.75;;
34767;SDS011;21755;43.608;1.236;2024-01-06T00:48:26;4.50;;;2.28;;
34767;SDS011;21755;43.608;1.236;2024-01-06T00:50:52;3.85;;;2.13;;
34767;SDS011;21755;43.608;1.236;2024-01-06T00:53:18;4.63;;;2.15;;
34767;SDS011;21755;43.608;1.236;2024-01-06T00:55:43;8.73;;;2.50;;
34767;SDS011;21755;43.608;1.236;2024-01-06T00:58:09;4.90;;;2.40;;
34767;SDS011;21755;43.608;1.236;2024-01-06T01:00:36;7.28;;;2.17;;
34767;SDS011;21755;43.608;1.236;2024-01-06T01:03:02;4.45;;;2.38;;
34767;SDS011;21755;43.608;1.236;2024-01-06T01:05:28;7.03;;;2.05;;
34767;SDS011;21755;43.608;1.236;2024-01-06T01:07:54;6.15;;;2.25;;
34767;SDS011;21755;43.608;1.236;2024-01-06T01:10:19;9.13;;;2.38;;
34767;SDS011;21755;43.608;1.236;2024-01-06T01:12:45;8.10;;;2.50;;
34767;SDS011;21755;43.608;1.236;2024-01-06T01:15:11;7.45;;;2.25;;
34767;SDS011;21755;43.608;1.236;2024-01-06T01:17:38;5.82;;;2.20;;
34767;SDS011;21755;43.608;1.236;2024-01-06T01:20:04;5.95;;;2.05;;
34767;SDS011;21755;43.608;1.236;2024-01-06T01:22:30;5.05;;;2.35;;
34767;SDS011;21755;43.608;1.236;2024-01-06T01:24:56;10.88;;;3.00;;
34767;SDS011;21755;43.608;1.236;2024-01-06T01:27:22;7.15;;;2.47;;
34767;SDS011;21755;43.608;1.236;2024-01-06T01:29:48;8.70;;;2.10;;
34767;SDS011;21755;43.608;1.236;2024-01-06T01:32:18;7.07;;;2.15;;
34767;SDS011;21755;43.608;1.236;2024-01-06T01:34:44;9.32;;;2.67;;
34767;SDS011;21755;43.608;1.236;2024-01-06T01:37:10;6.35;;;2.35;;
34767;SDS011;21755;43.608;1.236;2024-01-06T01:39:36;8.18;;;2.70;;
34767;SDS011;21755;43.608;1.236;2024-01-06T01:42:02;6.63;;;2.17;;
34767;SDS011;21755;43.608;1.236;2024-01-06T01:44:28;10.82;;;2.50;;
34767;SDS011;21755;43.608;1.236;2024-01-06T01:46:54;6.38;;;2.55;;
34767;SDS011;21755;43.608;1.236;2024-01-06T01:49:21;13.85;;;3.03;;
34767;SDS011;21755;43.608;1.236;2024-01-06T01:51:47;5.68;;;2.30;;
34767;SDS011;21755;43.608;1.236;2024-01-06T01:54:15;7.32;;;2.45;;
34767;SDS011;21755;43.608;1.236;2024-01-06T01:56:41;5.55;;;2.50;;
34767;SDS011;21755;43.608;1.236;2024-01-06T01:59:11;3.22;;;1.90;;
34767;SDS011;21755;43.608;1.236;2024-01-06T02:01:40;8.32;;;2.20;;
34767;SDS011;21755;43.608;1.236;2024-01-06T02:04:07;6.28;;;3.42;;
34767;SDS011;21755;43.608;1.236;2024-01-06T02:06:34;5.82;;;2.30;;
34767;SDS011;21755;43.608;1.236;2024-01-06T02:09:00;9.10;;;2.33;;
34767;SDS011;21755;43.608;1.236;2024-01-06T02:11:26;4.75;;;2.08;;
34767;SDS011;21755;43.608;1.236;2024-01-06T02:13:52;5.40;;;2.25;;
34767;SDS011;21755;43.608;1.236;2024-01-06T02:16:18;7.80;;;2.25;;
34767;SDS011;21755;43.608;1.236;2024-01-06T02:18:43;4.57;;;2.25;;
34767;SDS011;21755;43.608;1.236;2024-01-06T02:21:09;6.38;;;1.90;;
34767;SDS011;21755;43.608;1.236;2024-01-06T02:23:36;9.43;;;1.67;;
34767;SDS011;21755;43.608;1.236;2024-01-06T02:26:02;9.50;;;2.00;;
34767;SDS011;21755;43.608;1.236;2024-01-06T02:28:28;7.47;;;3.45;;
34767;SDS011;21755;43.608;1.236;2024-01-06T02:30:54;9.95;;;1.90;;
34767;SDS011;21755;43.608;1.236;2024-01-06T02:33:20;9.23;;;3.10;;
34767;SDS011;21755;43.608;1.236;2024-01-06T02:35:49;4.70;;;1.80;;
34767;SDS011;21755;43.608;1.236;2024-01-06T02:38:15;6.30;;;2.00;;
34767;SDS011;21755;43.608;1.236;2024-01-06T02:40:40;7.35;;;2.10;;
34767;SDS011;21755;43.608;1.236;2024-01-06T02:43:08;6.00;;;2.00;;
34767;SDS011;21755;43.608;1.236;2024-01-06T02:45:35;8.65;;;2.00;;
34767;SDS011;21755;43.608;1.236;2024-01-06T02:48:00;7.65;;;1.67;;
34767;SDS011;21755;43.608;1.236;2024-01-06T02:50:26;6.45;;;1.60;;
34767;SDS011;21755;43.608;1.236;2024-01-06T02:52:53;8.77;;;1.80;;
34767;SDS011;21755;43.608;1.236;2024-01-06T02:55:19;4.82;;;1.80;;
34767;SDS011;21755;43.608;1.236;2024-01-06T02:57:45;11.40;;;2.50;;
34767;SDS011;21755;43.608;1.236;2024-01-06T03:00:11;5.53;;;1.80;;
34767;SDS011;21755;43.608;1.236;2024-01-06T03:02:38;6.70;;;1.90;;
34767;SDS011;21755;43.608;1.236;2024-01-06T03:05:07;6.05;;;2.08;;
34767;SDS011;21755;43.608;1.236;2024-01-06T03:07:33;6.38;;;1.65;;
34767;SDS011;21755;43.608;1.236;2024-01-06T03:09:59;5.15;;;1.60;;
34767;SDS011;21755;43.608;1.236;2024-01-06T03:12:25;6.57;;;1.50;;
34767;SDS011;21755;43.608;1.236;2024-01-06T03:14:51;2.45;;;1.52;;
34767;SDS011;21755;43.608;1.236;2024-01-06T03:17:18;2.22;;;1.33;;
34767;SDS011;21755;43.608;1.236;2024-01-06T03:19:44;5.07;;;1.90;;
34767;SDS011;21755;43.608;1.236;2024-01-06T03:22:10;2.70;;;1.33;;
34767;SDS011;21755;43.608;1.236;2024-01-06T03:24:35;3.33;;;1.52;;
34767;SDS011;21755;43.608;1.236;2024-01-06T03:27:02;6.45;;;1.50;;
34767;SDS011;21755;43.608;1.236;2024-01-06T03:29:28;3.78;;;1.45;;
34767;SDS011;21755;43.608;1.236;2024-01-06T03:31:54;3.03;;;1.55;;
34767;SDS011;21755;43.608;1.236;2024-01-06T03:34:20;7.15;;;1.98;;
34767;SDS011;21755;43.608;1.236;2024-01-06T03:36:45;7.97;;;1.70;;
34767;SDS011;21755;43.608;1.236;2024-01-06T03:39:11;4.63;;;1.73;;
34767;SDS011;21755;43.608;1.236;2024-01-06T03:41:39;4.32;;;1.60;;
34767;SDS011;21755;43.608;1.236;2024-01-06T03:44:05;3.50;;;1.55;;
34767;SDS011;21755;43.608;1.236;2024-01-06T03:46:32;4.15;;;1.77;;
34767;SDS011;21755;43.608;1.236;2024-01-06T03:48:58;6.72;;;1.40;;
34767;SDS011;21755;43.608;1.236;2024-01-06T03:51:24;6.70;;;2.13;;
34767;SDS011;21755;43.608;1.236;2024-01-06T03:53:50;11.75;;;1.67;;
34767;SDS011;21755;43.608;1.236;2024-01-06T03:56:16;4.88;;;1.63;;
34767;SDS011;21755;43.608;1.236;2024-01-06T03:58:43;4.97;;;1.60;;
34767;SDS011;21755;43.608;1.236;2024-01-06T04:01:09;7.30;;;1.55;;
34767;SDS011;21755;43.608;1.236;2024-01-06T04:03:35;11.15;;;1.50;;
34767;SDS011;21755;43.608;1.236;2024-01-06T04:06:01;8.52;;;1.70;;
34767;SDS011;21755;43.608;1.236;2024-01-06T04:08:28;5.90;;;1.65;;
34767;SDS011;21755;43.608;1.236;2024-01-06T04:10:54;7.03;;;2.00;;
34767;SDS011;21755;43.608;1.236;2024-01-06T04:13:20;8.00;;;1.75;;
34767;SDS011;21755;43.608;1.236;2024-01-06T04:15:46;8.57;;;1.52;;
34767;SDS011;21755;43.608;1.236;2024-01-06T04:18:12;5.05;;;1.55;;
34767;SDS011;21755;43.608;1.236;2024-01-06T04:20:38;7.05;;;1.67;;
34767;SDS011;21755;43.608;1.236;2024-01-06T04:23:04;7.38;;;2.40;;
34767;SDS011;21755;43.608;1.236;2024-01-06T04:25:29;6.03;;;1.80;;
34767;SDS011;21755;43.608;1.236;2024-01-06T04:27:55;8.70;;;1.52;;
34767;SDS011;21755;43.608;1.236;2024-01-06T04:30:21;3.17;;;1.48;;
34767;SDS011;21755;43.608;1.236;2024-01-06T04:32:47;5.25;;;1.52;;
34767;SDS011;21755;43.608;1.236;2024-01-06T04:35:13;6.65;;;2.22;;
34767;SDS011;21755;43.608;1.236;2024-01-06T04:37:39;4.30;;;1.80;;
34767;SDS011;21755;43.608;1.236;2024-01-06T04:40:05;6.32;;;2.40;;
34767;SDS011;21755;43.608;1.236;2024-01-06T04:42:33;10.13;;;2.17;;
34767;SDS011;21755;43.608;1.236;2024-01-06T04:44:59;4.57;;;1.70;;
34767;SDS011;21755;43.608;1.236;2024-01-06T04:47:25;6.10;;;1.90;;
34767;SDS011;21755;43.608;1.236;2024-01-06T04:49:52;7.35;;;2.20;;
34767;SDS011;21755;43.608;1.236;2024-01-06T04:52:18;7.78;;;2.00;;
34767;SDS011;21755;43.608;1.236;2024-01-06T04:54:44;8.45;;;2.17;;
34767;SDS011;21755;43.608;1.236;2024-01-06T04:57:10;5.22;;;1.80;;
34767;SDS011;21755;43.608;1.236;2024-01-06T04:59:36;6.47;;;2.50;;
34767;SDS011;21755;43.608;1.236;2024-01-06T05:02:02;4.47;;;2.03;;
34767;SDS011;21755;43.608;1.236;2024-01-06T05:04:28;7.80;;;2.13;;
34767;SDS011;21755;43.608;1.236;2024-01-06T05:06:55;4.60;;;1.80;;
34767;SDS011;21755;43.608;1.236;2024-01-06T05:09:21;10.02;;;2.10;;
34767;SDS011;21755;43.608;1.236;2024-01-06T05:11:47;10.95;;;2.70;;
34767;SDS011;21755;43.608;1.236;2024-01-06T05:14:13;7.88;;;2.08;;
34767;SDS011;21755;43.608;1.236;2024-01-06T05:16:39;12.68;;;2.70;;
34767;SDS011;21755;43.608;1.236;2024-01-06T05:19:05;11.45;;;3.20;;
34767;SDS011;21755;43.608;1.236;2024-01-06T05:21:31;5.38;;;1.88;;
34767;SDS011;21755;43.608;1.236;2024-01-06T05:23:57;6.00;;;2.13;;
34767;SDS011;21755;43.608;1.236;2024-01-06T05:26:24;10.88;;;2.53;;
34767;SDS011;21755;43.608;1.236;2024-01-06T05:28:50;7.53;;;2.20;;
34767;SDS011;21755;43.608;1.236;2024-01-06T05:31:17;8.85;;;3.67;;
34767;SDS011;21755;43.608;1.236;2024-01-06T05:33:42;6.07;;;2.05;;
34767;SDS011;21755;43.608;1.236;2024-01-06T05:36:08;7.53;;;2.17;;
34767;SDS011;21755;43.608;1.236;2024-01-06T05:38:35;4.03;;;1.67;;
34767;SDS011;21755;43.608;1.236;2024-01-06T05:41:01;8.20;;;1.85;;
34767;SDS011;21755;43.608;1.236;2024-01-06T05:43:27;6.97;;;2.42;;
34767;SDS011;21755;43.608;1.236;2024-01-06T05:45:53;6.97;;;2.20;;
34767;SDS011;21755;43.608;1.236;2024-01-06T05:48:19;6.28;;;2.70;;
34767;SDS011;21755;43.608;1.236;2024-01-06T05:50:45;13.15;;;2.53;;
34767;SDS011;21755;43.608;1.236;2024-01-06T05:53:11;6.22;;;1.90;;
34767;SDS011;21755;43.608;1.236;2024-01-06T05:55:39;7.00;;;2.20;;
34767;SDS011;21755;43.608;1.236;2024-01-06T05:58:05;3.70;;;1.90;;
34767;SDS011;21755;43.608;1.236;2024-01-06T06:00:31;16.00;;;3.10;;
34767;SDS011;21755;43.608;1.236;2024-01-06T06:02:57;5.15;;;1.95;;
34767;SDS011;21755;43.608;1.236;2024-01-06T06:05:23;10.70;;;1.98;;
34767;SDS011;21755;43.608;1.236;2024-01-06T06:07:50;4.63;;;1.90;;
34767;SDS011;21755;43.608;1.236;2024-01-06T06:10:16;3.92;;;1.80;;
34767;SDS011;21755;43.608;1.236;2024-01-06T06:12:43;5.47;;;2.13;;
34767;SDS011;21755;43.608;1.236;2024-01-06T06:15:09;6.35;;;1.60;;
34767;SDS011;21755;43.608;1.236;2024-01-06T06:17:35;6.72;;;2.30;;
34767;SDS011;21755;43.608;1.236;2024-01-06T06:20:02;9.02;;;2.10;;
34767;SDS011;21755;43.608;1.236;2024-01-06T06:22:28;3.92;;;1.90;;
34767;SDS011;21755;43.608;1.236;2024-01-06T06:24:57;6.82;;;1.60;;
34767;SDS011;21755;43.608;1.236;2024-01-06T06:27:23;4.20;;;2.38;;
34767;SDS011;21755;43.608;1.236;2024-01-06T06:29:50;2.33;;;1.70;;
34767;SDS011;21755;43.608;1.236;2024-01-06T06:32:16;5.13;;;1.83;;
34767;SDS011;21755;43.608;1.236;2024-01-06T06:34:42;5.03;;;1.45;;
34767;SDS011;21755;43.608;1.236;2024-01-06T06:37:08;2.92;;;1.60;;
34767;SDS011;21755;43.608;1.236;2024-01-06T06:39:34;5.95;;;1.60;;
34767;SDS011;21755;43.608;1.236;2024-01-06T06:42:01;2.97;;;1.30;;
34767;SDS011;21755;43.608;1.236;2024-01-06T06:44:27;3.10;;;1.48;;
34767;SDS011;21755;43.608;1.236;2024-01-06T06:46:54;3.75;;;1.25;;
34767;SDS011;21755;43.608;1.236;2024-01-06T06:49:21;4.60;;;1.67;;
34767;SDS011;21755;43.608;1.236;2024-01-06T06:51:46;5.82;;;1.70;;
34767;SDS011;21755;43.608;1.236;2024-01-06T06:54:13;5.60;;;1.30;;
34767;SDS011;21755;43.608;1.236;2024-01-06T06:56:43;4.00;;;1.33;;
34767;SDS011;21755;43.608;1.236;2024-01-06T06:59:10;4.40;;;1.58;;
34767;SDS011;21755;43.608;1.236;2024-01-06T07:01:36;2.42;;;1.60;;
34767;SDS011;21755;43.608;1.236;2024-01-06T07:04:02;4.20;;;1.55;;
34767;SDS011;21755;43.608;1.236;2024-01-06T07:06:29;2.15;;;1.30;;
34767;SDS011;21755;43.608;1.236;2024-01-06T07:08:55;2.95;;;1.20;;
34767;SDS011;21755;43.608;1.236;2024-01-06T07:11:22;5.75;;;1.20;;
34767;SDS011;21755;43.608;1.236;2024-01-06T07:13:48;5.65;;;1.17;;
34767;SDS011;21755;43.608;1.236;2024-01-06T07:16:14;3.78;;;0.95;;
34767;SDS011;21755;43.608;1.236;2024-01-06T07:18:40;3.25;;;0.88;;
34767;SDS011;21755;43.608;1.236;2024-01-06T07:21:06;5.20;;;1.08;;
34767;SDS011;21755;43.608;1.236;2024-01-06T07:23:33;1.65;;;0.95;;
34767;SDS011;21755;43.608;1.236;2024-01-06T07:25:59;3.58;;;1.05;;
34767;SDS011;21755;43.608;1.236;2024-01-06T07:28:25;1.48;;;0.75;;
34767;SDS011;21755;43.608;1.236;2024-01-06T07:30:52;1.08;;;0.60;;
34767;SDS011;21755;43.608;1.236;2024-01-06T07:33:18;3.00;;;0.93;;
34767;SDS011;21755;43.608;1.236;2024-01-06T07:35:44;1.92;;;1.00;;
34767;SDS011;21755;43.608;1.236;2024-01-06T07:38:11;1.63;;;0.80;;
34767;SDS011;21755;43.608;1.236;2024-01-06T07:40:37;3.83;;;0.82;;
34767;SDS011;21755;43.608;1.236;2024-01-06T07:43:03;1.85;;;0.57;;
34767;SDS011;21755;43.608;1.236;2024-01-06T07:45:29;2.08;;;1.23;;
34767;SDS011;21755;43.608;1.236;2024-01-06T07:47:57;1.17;;;0.80;;
34767;SDS011;21755;43.608;1.236;2024-01-06T07:50:23;3.35;;;1.23;;
34767;SDS011;21755;43.608;1.236;2024-01-06T07:52:49;3.03;;;1.90;;
34767;SDS011;21755;43.608;1.236;2024-01-06T07:55:15;1.83;;;0.90;;
34767;SDS011;21755;43.608;1.236;2024-01-06T07:57:42;2.47;;;1.20;;
34767;SDS011;21755;43.608;1.236;2024-01-06T08:00:09;2.83;;;1.15;;
34767;SDS011;21755;43.608;1.236;2024-01-06T08:02:36;4.07;;;1.52;;
34767;SDS011;21755;43.608;1.236;2024-01-06T08:05:02;4.28;;;1.20;;
34767;SDS011;21755;43.608;1.236;2024-01-06T08:07:29;3.90;;;1.42;;
34767;SDS011;21755;43.608;1.236;2024-01-06T08:09:55;3.42;;;1.70;;
34767;SDS011;21755;43.608;1.236;2024-01-06T08:12:21;4.07;;;1.17;;
34767;SDS011;21755;43.608;1.236;2024-01-06T08:14:46;4.18;;;1.40;;
34767;SDS011;21755;43.608;1.236;2024-01-06T08:17:12;2.17;;;1.67;;
34767;SDS011;21755;43.608;1.236;2024-01-06T08:19:38;3.25;;;1.77;;
34767;SDS011;21755;43.608;1.236;2024-01-06T08:22:04;4.95;;;2.58;;
34767;SDS011;21755;43.608;1.236;2024-01-06T08:24:30;5.65;;;1.80;;
34767;SDS011;21755;43.608;1.236;2024-01-06T08:26:56;5.63;;;1.40;;
34767;SDS011;21755;43.608;1.236;2024-01-06T08:29:22;4.65;;;1.83;;
34767;SDS011;21755;43.608;1.236;2024-01-06T08:31:48;3.03;;;1.60;;
34767;SDS011;21755;43.608;1.236;2024-01-06T08:34:17;4.63;;;1.45;;
34767;SDS011;21755;43.608;1.236;2024-01-06T08:36:43;3.80;;;1.42;;
34767;SDS011;21755;43.608;1.236;2024-01-06T08:39:09;3.95;;;1.73;;
34767;SDS011;21755;43.608;1.236;2024-01-06T08:41:36;3.05;;;1.20;;
34767;SDS011;21755;43.608;1.236;2024-01-06T08:44:02;2.22;;;1.70;;
34767;SDS011;21755;43.608;1.236;2024-01-06T08:46:29;3.55;;;1.88;;
34767;SDS011;21755;43.608;1.236;2024-01-06T08:48:55;5.30;;;2.00;;
34767;SDS011;21755;43.608;1.236;2024-01-06T08:51:22;4.57;;;1.38;;
34767;SDS011;21755;43.608;1.236;2024-01-06T08:53:49;4.70;;;2.70;;
34767;SDS011;21755;43.608;1.236;2024-01-06T08:56:15;10.02;;;2.97;;
34767;SDS011;21755;43.608;1.236;2024-01-06T08:58:43;9.15;;;3.35;;
34767;SDS011;21755;43.608;1.236;2024-01-06T09:01:09;6.45;;;2.20;;
34767;SDS011;21755;43.608;1.236;2024-01-06T09:03:35;4.43;;;3.25;;
34767;SDS011;21755;43.608;1.236;2024-01-06T09:06:01;3.42;;;2.45;;
34767;SDS011;21755;43.608;1.236;2024-01-06T09:08:28;4.35;;;2.30;;
34767;SDS011;21755;43.608;1.236;2024-01-06T09:10:54;1.95;;;1.45;;
34767;SDS011;21755;43.608;1.236;2024-01-06T09:13:22;7.65;;;1.90;;
34767;SDS011;21755;43.608;1.236;2024-01-06T09:15:49;4.93;;;2.17;;
34767;SDS011;21755;43.608;1.236;2024-01-06T09:18:18;9.60;;;5.05;;
34767;SDS011;21755;43.608;1.236;2024-01-06T09:20:44;10.13;;;3.90;;
34767;SDS011;21755;43.608;1.236;2024-01-06T09:23:12;3.67;;;2.00;;
34767;SDS011;21755;43.608;1.236;2024-01-06T09:25:39;3.15;;;1.83;;
34767;SDS011;21755;43.608;1.236;2024-01-06T09:28:07;3.78;;;1.77;;
34767;SDS011;21755;43.608;1.236;2024-01-06T09:30:33;3.60;;;1.35;;
34767;SDS011;21755;43.608;1.236;2024-01-06T09:32:59;4.70;;;1.25;;
34767;SDS011;21755;43.608;1.236;2024-01-06T09:35:25;2.00;;;1.45;;
34767;SDS011;21755;43.608;1.236;2024-01-06T09:37:51;2.03;;;1.45;;
34767;SDS011;21755;43.608;1.236;2024-01-06T09:40:23;3.72;;;1.70;;
34767;SDS011;21755;43.608;1.236;2024-01-06T09:42:50;3.63;;;2.05;;
34767;SDS011;21755;43.608;1.236;2024-01-06T09:45:16;3.72;;;1.70;;
34767;SDS011;21755;43.608;1.236;2024-01-06T09:47:42;2.83;;;1.70;;
34767;SDS011;21755;43.608;1.236;2024-01-06T09:50:14;4.10;;;2.50;;
34767;SDS011;21755;43.608;1.236;2024-01-06T09:52:45;5.43;;;2.35;;
34767;SDS011;21755;43.608;1.236;2024-01-06T09:55:17;4.80;;;1.90;;
34767;SDS011;21755;43.608;1.236;2024-01-06T09:57:46;6.95;;;2.25;;
34767;SDS011;21755;43.608;1.236;2024-01-06T10:00:12;5.63;;;1.88;;
34767;SDS011;21755;43.608;1.236;2024-01-06T10:02:39;5.68;;;1.90;;
34767;SDS011;21755;43.608;1.236;2024-01-06T10:05:06;3.15;;;1.88;;
34767;SDS011;21755;43.608;1.236;2024-01-06T10:07:32;9.32;;;2.25;;
34767;SDS011;21755;43.608;1.236;2024-01-06T10:09:58;9.60;;;2.40;;
34767;SDS011;21755;43.608;1.236;2024-01-06T10:12:25;6.07;;;2.53;;
34767;SDS011;21755;43.608;1.236;2024-01-06T10:14:51;5.30;;;2.20;;
34767;SDS011;21755;43.608;1.236;2024-01-06T10:17:17;5.35;;;1.98;;
34767;SDS011;21755;43.608;1.236;2024-01-06T10:19:44;4.32;;;1.90;;
34767;SDS011;21755;43.608;1.236;2024-01-06T10:22:11;7.78;;;2.55;;
34767;SDS011;21755;43.608;1.236;2024-01-06T10:24:37;10.30;;;2.20;;
34767;SDS011;21755;43.608;1.236;2024-01-06T10:27:03;6.10;;;1.77;;
34767;SDS011;21755;43.608;1.236;2024-01-06T10:29:29;5.05;;;1.80;;
34767;SDS011;21755;43.608;1.236;2024-01-06T10:31:55;5.28;;;1.80;;
34767;SDS011;21755;43.608;1.236;2024-01-06T10:34:23;5.85;;;1.52;;
34767;SDS011;21755;43.608;1.236;2024-01-06T10:36:49;6.90;;;1.65;;
34767;SDS011;21755;43.608;1.236;2024-01-06T10:39:17;5.53;;;1.58;;
34767;SDS011;21755;43.608;1.236;2024-01-06T10:41:45;4.63;;;1.52;;
34767;SDS011;21755;43.608;1.236;2024-01-06T10:44:14;3.83;;;1.52;;
34767;SDS011;21755;43.608;1.236;2024-01-06T10:46:40;6.53;;;1.52;;
34767;SDS011;21755;43.608;1.236;2024-01-06T10:49:08;3.58;;;1.40;;
34767;SDS011;21755;43.608;1.236;2024-01-06T10:51:37;2.80;;;1.42;;
34767;SDS011;21755;43.608;1.236;2024-01-06T10:54:04;1.70;;;1.20;;
34767;SDS011;21755;43.608;1.236;2024-01-06T10:56:31;3.72;;;1.60;;
34767;SDS011;21755;43.608;1.236;2024-01-06T10:59:03;5.25;;;1.42;;
34767;SDS011;21755;43.608;1.236;2024-01-06T11:01:30;3.53;;;1.33;;
34767;SDS011;21755;43.608;1.236;2024-01-06T11:03:58;1.73;;;1.00;;
34767;SDS011;21755;43.608;1.236;2024-01-06T11:06:25;3.90;;;1.17;;
34767;SDS011;21755;43.608;1.236;2024-01-06T11:09:12;5.95;;;1.63;;
34767;SDS011;21755;43.608;1.236;2024-01-06T11:11:52;2.17;;;1.38;;
34767;SDS011;21755;43.608;1.236;2024-01-06T11:14:23;5.32;;;1.50;;
34767;SDS011;21755;43.608;1.236;2024-01-06T11:16:50;2.05;;;1.20;;
34767;SDS011;21755;43.608;1.236;2024-01-06T11:24:51;1.85;;;1.27;;
34767;SDS011;21755;43.608;1.236;2024-01-06T11:27:20;5.20;;;1.55;;
34767;SDS011;21755;43.608;1.236;2024-01-06T11:29:57;6.35;;;1.00;;
34767;SDS011;21755;43.608;1.236;2024-01-06T11:32:26;1.73;;;1.10;;
34767;SDS011;21755;43.608;1.236;2024-01-06T11:35:07;4.65;;;1.10;;
34767;SDS011;21755;43.608;1.236;2024-01-06T11:40:10;3.55;;;1.25;;
34767;SDS011;21755;43.608;1.236;2024-01-06T11:42:41;5.35;;;1.48;;
34767;SDS011;21755;43.608;1.236;2024-01-06T11:45:07;3.28;;;1.63;;
34767;SDS011;21755;43.608;1.236;2024-01-06T11:47:34;2.97;;;1.08;;
34767;SDS011;21755;43.608;1.236;2024-01-06T11:50:00;2.50;;;0.70;;
34767;SDS011;21755;43.608;1.236;2024-01-06T11:52:30;1.80;;;0.90;;
34767;SDS011;21755;43.608;1.236;2024-01-06T11:54:57;3.55;;;1.20;;
34767;SDS011;21755;43.608;1.236;2024-01-06T11:57:25;3.83;;;1.50;;
34767;SDS011;21755;43.608;1.236;2024-01-06T11:59:54;4.75;;;2.33;;
34767;SDS011;21755;43.608;1.236;2024-01-06T12:02:20;5.25;;;2.58;;
34767;SDS011;21755;43.608;1.236;2024-01-06T12:04:50;5.93;;;2.80;;
34767;SDS011;21755;43.608;1.236;2024-01-06T12:07:17;7.65;;;3.63;;
34767;SDS011;21755;43.608;1.236;2024-01-06T12:09:44;4.68;;;1.60;;
34767;SDS011;21755;43.608;1.236;2024-01-06T12:12:17;3.95;;;1.40;;
34767;SDS011;21755;43.608;1.236;2024-01-06T12:14:43;2.72;;;1.17;;
34767;SDS011;21755;43.608;1.236;2024-01-06T12:17:11;4.88;;;1.00;;
34767;SDS011;21755;43.608;1.236;2024-01-06T12:19:38;3.55;;;0.80;;
34767;SDS011;21755;43.608;1.236;2024-01-06T12:22:07;2.10;;;0.95;;
34767;SDS011;21755;43.608;1.236;2024-01-06T12:24:34;1.75;;;0.90;;
34767;SDS011;21755;43.608;1.236;2024-01-06T12:27:01;2.55;;;1.13;;
34767;SDS011;21755;43.608;1.236;2024-01-06T12:29:27;3.53;;;1.70;;
34767;SDS011;21755;43.608;1.236;2024-01-06T12:31:54;4.70;;;0.80;;
34767;SDS011;21755;43.608;1.236;2024-01-06T12:34:21;5.18;;;1.13;;
34767;SDS011;21755;43.608;1.236;2024-01-06T12:36:47;4.88;;;1.30;;
34767;SDS011;21755;43.608;1.236;2024-01-06T12:39:19;4.57;;;1.42;;
34767;SDS011;21755;43.608;1.236;2024-01-06T12:41:45;2.80;;;1.10;;
34767;SDS011;21755;43.608;1.236;2024-01-06T12:44:11;3.92;;;1.20;;
34767;SDS011;21755;43.608;1.236;2024-01-06T12:46:37;3.40;;;1.00;;
34767;SDS011;21755;43.608;1.236;2024-01-06T12:49:03;2.17;;;1.25;;
34767;SDS011;21755;43.608;1.236;2024-01-06T12:51:29;2.45;;;1.00;;
34767;SDS011;21755;43.608;1.236;2024-01-06T12:53:55;2.17;;;0.90;;
34767;SDS011;21755;43.608;1.236;2024-01-06T12:56:21;2.45;;;1.08;;
34767;SDS011;21755;43.608;1.236;2024-01-06T12:58:48;2.45;;;0.70;;
34767;SDS011;21755;43.608;1.236;2024-01-06T13:01:13;5.78;;;1.17;;
34767;SDS011;21755;43.608;1.236;2024-01-06T13:03:39;4.03;;;1.20;;
34767;SDS011;21755;43.608;1.236;2024-01-06T13:06:05;2.30;;;1.63;;
34767;SDS011;21755;43.608;1.236;2024-01-06T13:08:31;3.17;;;1.05;;
34767;SDS011;21755;43.608;1.236;2024-01-06T13:10:57;3.58;;;2.10;;
34767;SDS011;21755;43.608;1.236;2024-01-06T13:13:23;6.65;;;1.90;;
34767;SDS011;21755;43.608;1.236;2024-01-06T13:15:49;2.90;;;1.40;;
34767;SDS011;21755;43.608;1.236;2024-01-06T13:18:15;2.10;;;1.13;;
34767;SDS011;21755;43.608;1.236;2024-01-06T13:20:43;4.90;;;1.75;;
34767;SDS011;21755;43.608;1.236;2024-01-06T13:23:09;3.92;;;1.92;;
34767;SDS011;21755;43.608;1.236;2024-01-06T13:25:37;2.83;;;1.27;;
34767;SDS011;21755;43.608;1.236;2024-01-06T13:28:06;2.88;;;1.58;;
34767;SDS011;21755;43.608;1.236;2024-01-06T13:30:32;5.97;;;1.25;;
34767;SDS011;21755;43.608;1.236;2024-01-06T13:32:59;7.43;;;3.20;;
34767;SDS011;21755;43.608;1.236;2024-01-06T13:35:25;9.02;;;2.30;;
34767;SDS011;21755;43.608;1.236;2024-01-06T13:37:51;3.63;;;1.58;;
34767;SDS011;21755;43.608;1.236;2024-01-06T13:40:18;3.30;;;1.77;;
34767;SDS011;21755;43.608;1.236;2024-01-06T13:42:50;4.22;;;1.90;;
34767;SDS011;21755;43.608;1.236;2024-01-06T13:45:17;5.85;;;2.65;;
34767;SDS011;21755;43.608;1.236;2024-01-06T13:47:43;6.93;;;2.40;;
34767;SDS011;21755;43.608;1.236;2024-01-06T13:50:13;2.13;;;1.10;;
34767;SDS011;21755;43.608;1.236;2024-01-06T13:52:43;2.40;;;1.60;;
34767;SDS011;21755;43.608;1.236;2024-01-06T13:55:10;3.20;;;1.40;;
34767;SDS011;21755;43.608;1.236;2024-01-06T13:57:36;5.00;;;2.00;;
34767;SDS011;21755;43.608;1.236;2024-01-06T14:00:09;2.55;;;1.45;;
34767;SDS011;21755;43.608;1.236;2024-01-06T14:02:36;2.63;;;1.13;;
34767;SDS011;21755;43.608;1.236;2024-01-06T14:05:03;1.67;;;0.82;;
34767;SDS011;21755;43.608;1.236;2024-01-06T14:07:33;2.03;;;1.15;;
34767;SDS011;21755;43.608;1.236;2024-01-06T14:10:00;5.40;;;1.80;;
34767;SDS011;21755;43.608;1.236;2024-01-06T14:12:28;8.05;;;2.58;;
34767;SDS011;21755;43.608;1.236;2024-01-06T14:14:55;2.78;;;1.00;;
34767;SDS011;21755;43.608;1.236;2024-01-06T14:17:21;1.85;;;0.90;;
34767;SDS011;21755;43.608;1.236;2024-01-06T14:19:47;2.50;;;0.98;;
34767;SDS011;21755;43.608;1.236;2024-01-06T14:22:13;4.38;;;0.93;;
34767;SDS011;21755;43.608;1.236;2024-01-06T14:24:40;6.55;;;1.08;;
34767;SDS011;21755;43.608;1.236;2024-01-06T14:27:05;2.92;;;1.17;;
34767;SDS011;21755;43.608;1.236;2024-01-06T14:29:31;5.68;;;1.20;;
34767;SDS011;21755;43.608;1.236;2024-01-06T14:31:57;5.32;;;1.40;;
34767;SDS011;21755;43.608;1.236;2024-01-06T14:34:23;3.08;;;1.27;;
34767;SDS011;21755;43.608;1.236;2024-01-06T14:36:50;4.03;;;1.48;;
34767;SDS011;21755;43.608;1.236;2024-01-06T14:39:16;4.45;;;1.30;;
34767;SDS011;21755;43.608;1.236;2024-01-06T14:41:42;5.18;;;1.45;;
34767;SDS011;21755;43.608;1.236;2024-01-06T14:44:08;3.55;;;1.00;;
34767;SDS011;21755;43.608;1.236;2024-01-06T14:46:34;5.28;;;2.53;;
34767;SDS011;21755;43.608;1.236;2024-01-06T14:49:02;3.10;;;1.90;;
34767;SDS011;21755;43.608;1.236;2024-01-06T14:51:28;1.58;;;0.98;;
34767;SDS011;21755;43.608;1.236;2024-01-06T14:53:54;2.88;;;1.23;;